SBCJ/CKS METAR and TAF weather

Enter ICAO airport designator
Station Type Date Time Source
SBCJ METAR 2021/07/30 21:30 UTC NOAA

SBCJ 302130Z 00000KT CAVOK 22/16 Q1016


Station Type Date Time Source
SBCJ Decoded METAR 2021/07/30 21:30 UTC NOAA

Carajas / Maraba, Brazil (SBCJ) 06-07S 050-00W
Jul 30, 2021 - 05:30 PM EDT / 2021.07.30 2130 UTC
Wind: Calm:0
Visibility: greater than 7 mile(s):0
Temperature: 71 F (22 C)
Dew Point: 60 F (16 C)
Relative Humidity: 68%
Pressure (altimeter): 30.00 in. Hg (1016 hPa)
ob: SBCJ 302130Z 00000KT CAVOK 22/16 Q1016
cycle: 21

Station Type Date Time Source
SBCJ TAF 2021/07/30 18:51 UTC NOAA

TAF TAF SBCJ 301546Z 3018/3106 12006KT CAVOK TX30/3018Z TN21/3106Z
BECMG 3018/3020 16006KT
BECMG 3100/3102 34006KT
RMK PGW

Example: see airport list